TimeCDT,TemperatureF,Dew PointF,Humidity,Sea Level PressureIn,VisibilityMPH,Wind Direction,Wind SpeedMPH,Gust SpeedMPH,PrecipitationIn,Events,Conditions,WindDirDegrees,DateUTC
12:53 AM,39.0,32.0,76,30.04,10.0,North,11.5,-,N/A,,Partly Cloudy,350,2011-10-20 05:53:00
1:53 AM,39.0,30.9,73,30.04,10.0,North,10.4,-,N/A,,Mostly Cloudy,350,2011-10-20 06:53:00
2:53 AM,37.9,30.9,76,30.03,10.0,North,9.2,-,N/A,,Partly Cloudy,350,2011-10-20 07:53:00
3:53 AM,37.0,30.9,79,30.01,10.0,NNW,11.5,-,N/A,,Clear,340,2011-10-20 08:53:00
4:53 AM,37.4,30.2,75,29.98,10.0,NNW,10.4,-,N/A,,Partly Cloudy,340,2011-10-20 09:53:00
5:53 AM,35.6,30.2,81,29.98,10.0,NNW,9.2,-,N/A,,Clear,340,2011-10-20 10:53:00
6:53 AM,36.0,30.9,82,30.00,10.0,North,11.5,-,N/A,,Partly Cloudy,350,2011-10-20 11:53:00
7:53 AM,36.0,30.9,82,30.00,10.0,NNW,9.2,-,N/A,,Clear,330,2011-10-20 12:53:00
8:53 AM,37.9,32.0,79,30.01,10.0,North,12.7,-,N/A,,Clear,350,2011-10-20 13:53:00
9:53 AM,41.0,30.9,67,30.01,10.0,North,13.8,-,N/A,,Partly Cloudy,350,2011-10-20 14:53:00
10:53 AM,44.1,30.0,58,30.00,10.0,North,13.8,-,N/A,,Clear,350,2011-10-20 15:53:00
11:53 AM,48.0,30.0,50,29.97,10.0,NNW,10.4,-,N/A,,Clear,340,2011-10-20 16:53:00
12:53 PM,50.0,28.9,44,29.96,10.0,NNW,15.0,19.6,N/A,,Clear,330,2011-10-20 17:53:00
1:53 PM,52.0,27.0,38,29.95,10.0,NNW,18.4,25.3,N/A,,Clear,330,2011-10-20 18:53:00
2:53 PM,54.0,28.0,37,29.94,10.0,NNW,12.7,20.7,N/A,,Clear,340,2011-10-20 19:53:00
3:53 PM,53.6,26.6,35,29.92,10.0,NW,12.7,-,N/A,,Clear,320,2011-10-20 20:53:00
4:53 PM,52.0,27.0,38,29.94,10.0,NW,13.8,20.7,N/A,,Clear,310,2011-10-20 21:53:00
5:53 PM,50.0,27.0,41,29.95,10.0,North,11.5,17.3,N/A,,Partly Cloudy,350,2011-10-20 22:53:00
6:53 PM,46.0,28.9,51,29.96,10.0,NNW,5.8,-,N/A,,Clear,340,2011-10-20 23:53:00
7:53 PM,46.0,28.9,51,29.98,10.0,Variable,4.6,-,N/A,,Clear,0,2011-10-21 00:53:00
8:53 PM,43.0,30.0,60,29.98,10.0,WNW,4.6,-,N/A,,Clear,300,2011-10-21 01:53:00
9:53 PM,42.1,30.0,62,29.99,10.0,WNW,4.6,-,N/A,,Clear,300,2011-10-21 02:53:00
10:53 PM,41.0,30.9,67,30.00,10.0,NW,4.6,-,N/A,,Clear,310,2011-10-21 03:53:00
11:53 PM,37.9,30.0,73,30.01,10.0,WNW,4.6,-,N/A,,Clear,290,2011-10-21 04:53:00